createdAt,value
2017-12-15T00:01:50.006Z,3.60
2017-12-15T00:04:17.473Z,3.60
2017-12-15T00:06:45.697Z,3.50
2017-12-15T00:09:13.174Z,3.50
2017-12-15T00:11:40.757Z,3.60
2017-12-15T00:14:08.941Z,3.70
2017-12-15T00:16:37.193Z,3.70
2017-12-15T00:19:04.652Z,3.70
2017-12-15T00:21:32.125Z,3.70
2017-12-15T00:24:00.597Z,3.70
2017-12-15T00:26:28.084Z,3.70
2017-12-15T00:28:55.683Z,3.70
2017-12-15T00:31:23.285Z,3.70
2017-12-15T00:33:50.908Z,3.70
2017-12-15T00:36:18.581Z,3.70
2017-12-15T00:38:46.046Z,3.70
2017-12-15T00:41:13.512Z,3.70
2017-12-15T00:43:40.972Z,3.70
2017-12-15T00:46:08.609Z,3.70
2017-12-15T00:48:36.060Z,3.70
2017-12-15T00:51:03.564Z,3.70
2017-12-15T00:53:31.007Z,3.70
2017-12-15T00:55:59.229Z,3.70
2017-12-15T00:58:26.733Z,3.70
2017-12-15T01:00:54.189Z,3.80
2017-12-15T01:03:21.661Z,3.80
2017-12-15T01:05:49.896Z,3.80
2017-12-15T01:08:17.353Z,3.80
2017-12-15T01:10:44.807Z,3.80
2017-12-15T01:13:12.421Z,3.80
2017-12-15T01:15:40.655Z,3.80
2017-12-15T01:18:09.625Z,3.80
2017-12-15T01:20:37.161Z,3.80
2017-12-15T01:23:04.709Z,3.90
2017-12-15T01:25:32.932Z,3.90
2017-12-15T01:28:00.413Z,3.90
2017-12-15T01:30:27.880Z,3.90
2017-12-15T01:32:56.109Z,4.00
2017-12-15T01:35:23.579Z,3.90
2017-12-15T01:37:51.151Z,4.00
2017-12-15T01:40:18.717Z,4.00
2017-12-15T01:42:46.176Z,3.90
2017-12-15T01:45:13.633Z,3.90
2017-12-15T01:47:41.863Z,3.90
2017-12-15T01:50:09.329Z,3.80
2017-12-15T01:52:36.797Z,3.90
2017-12-15T01:55:04.261Z,3.90
2017-12-15T01:57:31.932Z,3.90
2017-12-15T01:59:59.407Z,3.80
2017-12-15T02:02:27.635Z,3.70
2017-12-15T02:04:55.093Z,3.70
2017-12-15T02:07:22.552Z,3.70
2017-12-15T02:09:50.026Z,3.70
2017-12-15T02:12:17.494Z,3.70
2017-12-15T02:14:44.951Z,3.70
2017-12-15T02:17:12.469Z,3.70
2017-12-15T02:19:39.933Z,3.70
2017-12-15T02:22:07.402Z,3.70
2017-12-15T02:24:34.861Z,3.70
2017-12-15T02:27:02.324Z,3.70
2017-12-15T02:29:29.794Z,3.60
2017-12-15T02:31:57.259Z,3.70
2017-12-15T02:34:25.546Z,3.60
2017-12-15T02:36:53.037Z,3.60
2017-12-15T02:39:21.120Z,3.70
2017-12-15T02:41:48.631Z,3.70
2017-12-15T02:44:16.894Z,3.70
2017-12-15T02:46:45.207Z,3.70
2017-12-15T02:49:12.674Z,3.70
2017-12-15T02:51:40.151Z,3.70
2017-12-15T02:54:07.650Z,3.60
2017-12-15T02:56:35.889Z,3.60
2017-12-15T02:59:03.338Z,3.60
2017-12-15T03:01:30.915Z,3.60
2017-12-15T03:03:58.418Z,3.60
2017-12-15T03:06:25.889Z,3.50
2017-12-15T03:08:53.345Z,3.50
2017-12-15T03:11:20.814Z,3.50
2017-12-15T03:13:48.320Z,3.50
2017-12-15T03:16:15.794Z,3.50
2017-12-15T03:18:43.252Z,3.50
2017-12-15T03:21:10.774Z,3.50
2017-12-15T03:23:38.251Z,3.50
2017-12-15T03:26:06.501Z,3.50
2017-12-15T03:28:33.960Z,3.50
2017-12-15T03:31:01.415Z,3.60
2017-12-15T03:33:28.893Z,3.60
2017-12-15T03:35:57.121Z,3.60
2017-12-15T03:38:24.590Z,3.60
2017-12-15T03:40:52.077Z,3.60
2017-12-15T03:43:19.550Z,3.60
2017-12-15T03:45:47.777Z,3.60
2017-12-15T03:48:15.266Z,3.60
2017-12-15T03:50:42.752Z,3.60
2017-12-15T03:53:10.226Z,3.60
2017-12-15T03:55:37.708Z,3.60
2017-12-15T03:58:05.161Z,3.60
2017-12-15T04:00:32.630Z,3.60
2017-12-15T04:03:00.110Z,3.60
2017-12-15T04:05:27.567Z,3.60
2017-12-15T04:07:55.808Z,3.60
2017-12-15T04:10:23.281Z,3.60
2017-12-15T04:12:50.749Z,3.60
2017-12-15T04:15:18.307Z,3.60
2017-12-15T04:17:45.784Z,3.60
2017-12-15T04:20:14.173Z,3.70
2017-12-15T04:22:41.897Z,3.70
2017-12-15T04:25:09.368Z,3.70
2017-12-15T04:27:37.612Z,3.70
2017-12-15T04:30:05.074Z,3.70
2017-12-15T04:32:32.557Z,3.80
2017-12-15T04:35:00.797Z,3.70
2017-12-15T04:37:28.265Z,3.70
2017-12-15T04:39:55.733Z,3.70
2017-12-15T04:42:23.208Z,3.70
2017-12-15T04:44:51.449Z,3.80
2017-12-15T04:47:18.897Z,3.70
2017-12-15T04:49:46.369Z,3.80
2017-12-15T04:52:13.841Z,3.80
2017-12-15T04:54:41.312Z,3.80
2017-12-15T04:57:09.562Z,3.90
2017-12-15T04:59:37.030Z,3.80
2017-12-15T05:02:04.504Z,3.90
2017-12-15T05:04:32.738Z,3.90
2017-12-15T05:07:00.236Z,3.90
2017-12-15T05:09:28.472Z,4.00
2017-12-15T05:11:55.942Z,4.00
2017-12-15T05:14:23.409Z,4.00
2017-12-15T05:16:50.882Z,4.00
2017-12-15T05:19:19.233Z,4.00
2017-12-15T05:21:46.701Z,4.00
2017-12-15T05:24:14.148Z,4.00
2017-12-15T05:26:41.629Z,4.00
2017-12-15T05:29:09.892Z,4.00
2017-12-15T05:31:37.345Z,4.00
2017-12-15T05:34:04.813Z,4.00
2017-12-15T05:36:33.261Z,4.00
2017-12-15T05:39:00.746Z,4.00
2017-12-15T05:41:28.196Z,4.00
2017-12-15T05:43:55.664Z,4.00
2017-12-15T05:46:23.902Z,4.10
2017-12-15T05:48:51.530Z,4.10
2017-12-15T05:51:18.993Z,4.10
2017-12-15T05:53:46.489Z,4.10
2017-12-15T05:56:13.974Z,4.10
2017-12-15T05:58:42.206Z,4.10
2017-12-15T06:01:09.669Z,4.10
2017-12-15T06:03:37.146Z,4.20
2017-12-15T06:06:04.600Z,4.10
2017-12-15T06:08:32.077Z,4.10
2017-12-15T06:11:00.310Z,4.20
2017-12-15T06:13:27.768Z,4.20
2017-12-15T06:15:55.232Z,4.20
2017-12-15T06:18:22.707Z,4.20
2017-12-15T06:20:50.182Z,4.20
2017-12-15T06:23:18.456Z,4.30
2017-12-15T06:25:46.695Z,4.30
2017-12-15T06:28:14.164Z,4.20
2017-12-15T06:30:45.706Z,4.30
2017-12-15T06:33:14.833Z,4.30
2017-12-15T06:35:43.068Z,4.30
2017-12-15T06:38:10.525Z,4.30
2017-12-15T06:40:38.002Z,4.30
2017-12-15T06:43:05.477Z,4.40
2017-12-15T06:45:33.700Z,4.40
2017-12-15T06:48:01.444Z,4.40
2017-12-15T06:50:28.910Z,4.40
2017-12-15T06:52:56.374Z,4.40
2017-12-15T06:55:23.829Z,4.40
2017-12-15T06:57:52.005Z,4.50
2017-12-15T07:00:19.489Z,4.50
2017-12-15T07:02:46.964Z,4.50
2017-12-15T07:05:15.187Z,4.50
2017-12-15T07:07:42.660Z,4.50
2017-12-15T07:10:10.135Z,4.50
2017-12-15T07:12:37.666Z,4.50
2017-12-15T07:15:05.125Z,4.50
2017-12-15T07:17:32.606Z,4.50
2017-12-15T07:20:00.059Z,4.50
2017-12-15T07:22:27.565Z,4.50
2017-12-15T07:24:55.040Z,4.50
2017-12-15T07:27:22.561Z,4.60
2017-12-15T07:29:51.299Z,4.60
2017-12-15T07:32:18.821Z,4.60
2017-12-15T07:34:46.314Z,4.50
2017-12-15T07:37:13.777Z,4.40
2017-12-15T07:39:41.252Z,4.50
2017-12-15T07:42:08.717Z,4.60
2017-12-15T07:44:36.184Z,4.60
2017-12-15T07:47:05.119Z,4.40
2017-12-15T07:49:32.586Z,4.30
2017-12-15T07:52:00.043Z,4.30
2017-12-15T07:54:27.530Z,4.40
2017-12-15T07:56:55.006Z,4.40
2017-12-15T07:59:23.361Z,4.30
2017-12-15T08:01:51.024Z,4.30
2017-12-15T08:04:18.480Z,4.30
2017-12-15T08:06:46.725Z,4.30
2017-12-15T08:09:14.181Z,4.20
2017-12-15T08:11:41.651Z,4.30
2017-12-15T08:14:09.109Z,4.30
2017-12-15T08:16:36.581Z,4.30
2017-12-15T08:19:04.096Z,4.30
2017-12-15T08:21:31.550Z,4.40
2017-12-15T08:23:59.014Z,4.30
2017-12-15T08:26:26.489Z,4.30
2017-12-15T08:28:56.010Z,4.30
2017-12-15T08:31:23.485Z,4.40
2017-12-15T08:33:51.709Z,4.40
2017-12-15T08:36:19.209Z,4.40
2017-12-15T08:38:47.451Z,4.50
2017-12-15T08:41:14.934Z,4.50
2017-12-15T08:43:43.281Z,4.50
2017-12-15T08:46:10.739Z,4.50
2017-12-15T08:48:38.217Z,4.50
2017-12-15T08:51:05.683Z,4.50
2017-12-15T08:53:33.337Z,4.50
2017-12-15T08:56:00.866Z,4.50
2017-12-15T08:58:28.376Z,4.50
2017-12-15T09:00:56.619Z,4.50
2017-12-15T09:03:24.086Z,4.50
2017-12-15T09:05:51.553Z,4.50
2017-12-15T09:08:19.029Z,4.50
2017-12-15T09:10:47.321Z,4.60
2017-12-15T09:13:14.803Z,4.60
2017-12-15T09:15:42.271Z,4.60
2017-12-15T09:18:09.733Z,4.60
2017-12-15T09:20:37.204Z,4.70
2017-12-15T09:23:04.672Z,4.70
2017-12-15T09:25:32.149Z,4.60
2017-12-15T09:28:00.465Z,4.50
2017-12-15T09:30:27.938Z,4.50
2017-12-15T09:32:55.398Z,4.50
2017-12-15T09:35:22.862Z,4.60
2017-12-15T09:37:50.401Z,4.60
2017-12-15T09:40:17.873Z,4.60
2017-12-15T09:42:45.343Z,4.60
2017-12-15T09:45:12.805Z,4.70
2017-12-15T09:47:40.274Z,4.70
2017-12-15T09:50:08.520Z,4.80
2017-12-15T09:52:35.986Z,4.80
2017-12-15T09:55:03.449Z,4.80
2017-12-15T09:57:30.924Z,4.90
2017-12-15T09:59:59.296Z,4.80
2017-12-15T10:02:27.521Z,4.80
2017-12-15T10:04:54.992Z,4.80
2017-12-15T10:07:23.026Z,4.80
2017-12-15T10:09:50.509Z,4.90
2017-12-15T10:12:18.142Z,4.80
2017-12-15T10:14:45.693Z,4.80
2017-12-15T10:17:13.227Z,5.00
2017-12-15T10:19:41.515Z,5.10
2017-12-15T10:22:09.737Z,5.10
2017-12-15T10:24:37.202Z,5.10
2017-12-15T10:27:04.689Z,5.10
2017-12-15T10:29:32.148Z,5.20
2017-12-15T10:31:59.625Z,5.30
2017-12-15T10:34:27.936Z,5.30
2017-12-15T10:36:55.423Z,5.30
2017-12-15T10:39:22.868Z,5.20
2017-12-15T10:41:50.322Z,5.10
2017-12-15T10:44:17.811Z,5.10
2017-12-15T10:46:45.280Z,5.00
2017-12-15T10:49:13.637Z,4.90
2017-12-15T10:51:41.114Z,4.90
2017-12-15T10:54:09.333Z,4.90
2017-12-15T10:56:36.804Z,4.90
2017-12-15T10:59:04.393Z,4.90
2017-12-15T11:01:31.854Z,4.90
2017-12-15T11:04:00.082Z,4.90
2017-12-15T11:06:27.573Z,4.90
2017-12-15T11:08:55.041Z,4.90
2017-12-15T11:11:22.509Z,5.00
2017-12-15T11:13:50.891Z,4.90
2017-12-15T11:16:19.135Z,4.90
2017-12-15T11:18:47.367Z,4.90
2017-12-15T11:21:14.839Z,4.80
2017-12-15T11:23:42.297Z,4.90
2017-12-15T11:26:09.782Z,5.10
2017-12-15T11:28:37.316Z,5.20
2017-12-15T11:31:04.914Z,5.10
2017-12-15T11:33:32.457Z,5.10
2017-12-15T11:36:00.077Z,5.00
2017-12-15T11:38:27.633Z,4.90
2017-12-15T11:40:55.119Z,5.00
2017-12-15T11:43:22.585Z,5.00
2017-12-15T11:45:50.052Z,4.90
2017-12-15T11:48:17.614Z,5.00
2017-12-15T11:50:45.063Z,5.00
2017-12-15T11:53:12.538Z,5.10
2017-12-15T11:55:40.755Z,5.40
2017-12-15T11:58:08.360Z,5.40
2017-12-15T12:00:35.821Z,5.50
2017-12-15T12:03:03.292Z,5.50
2017-12-15T12:05:31.504Z,5.50
2017-12-15T12:07:58.981Z,5.50
2017-12-15T12:10:26.446Z,5.60
2017-12-15T12:12:53.921Z,5.60
2017-12-15T12:15:21.428Z,5.70
2017-12-15T12:17:48.905Z,5.70
2017-12-15T12:20:16.366Z,5.70
2017-12-15T12:22:43.858Z,5.70
2017-12-15T12:25:11.306Z,5.70
2017-12-15T12:27:38.765Z,5.70
2017-12-15T12:30:07.039Z,5.60
2017-12-15T12:32:34.497Z,5.60
2017-12-15T12:35:01.970Z,5.60
2017-12-15T12:37:30.206Z,5.60
2017-12-15T12:39:57.665Z,5.60
2017-12-15T12:42:25.135Z,5.60
2017-12-15T12:44:52.625Z,5.70
2017-12-15T12:47:20.113Z,5.70
2017-12-15T12:49:47.576Z,5.80
2017-12-15T12:52:15.040Z,5.80
2017-12-15T12:54:42.526Z,5.80
2017-12-15T12:57:10.003Z,5.90
2017-12-15T12:59:38.223Z,5.90
2017-12-15T13:02:05.699Z,5.90
2017-12-15T13:04:33.173Z,5.80
2017-12-15T13:07:00.651Z,5.80
2017-12-15T13:09:28.879Z,5.80
2017-12-15T13:11:56.354Z,5.80
2017-12-15T13:14:23.817Z,5.80
2017-12-15T13:16:51.331Z,5.80
2017-12-15T13:19:18.966Z,5.70
2017-12-15T13:21:46.449Z,5.70
2017-12-15T13:24:13.929Z,5.70
2017-12-15T13:26:41.408Z,5.70
2017-12-15T13:29:08.879Z,5.70
2017-12-15T13:31:37.108Z,5.60
2017-12-15T13:34:04.598Z,5.60
2017-12-15T13:36:32.074Z,5.60
2017-12-15T13:39:00.321Z,5.60
2017-12-15T13:41:28.434Z,5.70
2017-12-15T13:43:55.922Z,5.70
2017-12-15T13:46:23.401Z,5.70
2017-12-15T13:48:51.071Z,5.60
2017-12-15T13:51:18.537Z,5.60
2017-12-15T13:53:46.789Z,5.60
2017-12-15T13:56:14.265Z,5.50
2017-12-15T13:58:41.709Z,5.60
2017-12-15T14:01:09.197Z,5.50
2017-12-15T14:03:37.454Z,5.50
2017-12-15T14:06:04.941Z,5.50
2017-12-15T14:08:32.420Z,5.50
2017-12-15T14:10:59.894Z,5.50
2017-12-15T14:13:27.374Z,5.50
2017-12-15T14:15:56.394Z,5.50
2017-12-15T14:18:24.622Z,5.40
2017-12-15T14:20:52.100Z,5.40
2017-12-15T14:23:19.556Z,5.40
2017-12-15T14:25:47.062Z,5.30
2017-12-15T14:28:14.553Z,5.40
2017-12-15T14:30:42.301Z,5.30
2017-12-15T14:33:09.773Z,5.30
2017-12-15T14:35:37.225Z,5.30
2017-12-15T14:38:04.711Z,5.30
2017-12-15T14:40:32.258Z,5.40
2017-12-15T14:42:59.733Z,5.40
2017-12-15T14:45:27.184Z,5.40
2017-12-15T14:47:54.793Z,5.40
2017-12-15T14:50:22.249Z,5.40
2017-12-15T14:52:49.728Z,5.30
2017-12-15T14:55:17.212Z,5.20
2017-12-15T14:57:44.661Z,5.20
2017-12-15T15:00:13.213Z,5.20
2017-12-15T15:02:40.689Z,5.20
2017-12-15T15:05:08.282Z,5.20
2017-12-15T15:07:36.515Z,5.30
2017-12-15T15:10:03.972Z,5.30
2017-12-15T15:12:31.445Z,5.30
2017-12-15T15:14:58.908Z,5.30
2017-12-15T15:17:26.368Z,5.30
2017-12-15T15:19:53.840Z,5.20
2017-12-15T15:22:22.056Z,5.20
2017-12-15T15:24:49.564Z,5.20
2017-12-15T15:27:17.012Z,5.10
2017-12-15T15:29:44.477Z,5.10
2017-12-15T15:32:12.705Z,5.20
2017-12-15T15:34:40.225Z,5.10
2017-12-15T15:37:08.567Z,5.10
2017-12-15T15:39:36.029Z,5.10
2017-12-15T15:42:03.516Z,5.10
2017-12-15T15:44:31.745Z,5.10
2017-12-15T15:46:59.225Z,5.10
2017-12-15T15:49:26.761Z,5.10
2017-12-15T15:51:54.234Z,5.10
2017-12-15T15:54:21.706Z,5.10
2017-12-15T15:56:49.177Z,5.10
2017-12-15T15:59:17.401Z,5.20
2017-12-15T16:01:44.867Z,5.20
2017-12-15T16:04:12.344Z,5.20
2017-12-15T16:06:39.804Z,5.20
2017-12-15T16:09:07.279Z,5.30
2017-12-15T16:11:35.517Z,5.30
2017-12-15T16:14:02.981Z,5.20
2017-12-15T16:16:30.446Z,5.20
2017-12-15T16:18:57.916Z,5.20
2017-12-15T16:21:26.190Z,5.10
2017-12-15T16:23:54.418Z,5.10
2017-12-15T16:26:21.880Z,5.10
2017-12-15T16:28:49.354Z,5.10
2017-12-15T16:31:16.912Z,5.10
2017-12-15T16:33:44.415Z,5.10
2017-12-15T16:36:12.652Z,5.00
2017-12-15T16:38:40.107Z,5.00
2017-12-15T16:41:07.561Z,5.00
2017-12-15T16:43:35.033Z,4.90
2017-12-15T16:46:02.504Z,4.90
2017-12-15T16:48:30.739Z,5.00
2017-12-15T16:50:58.212Z,5.00
2017-12-15T16:53:25.694Z,5.00
2017-12-15T16:55:53.933Z,5.00
2017-12-15T16:58:21.401Z,5.00
2017-12-15T17:00:48.881Z,5.10
2017-12-15T17:03:17.211Z,5.10
2017-12-15T17:05:44.714Z,5.10
2017-12-15T17:08:12.958Z,5.10
2017-12-15T17:10:40.429Z,5.10
2017-12-15T17:13:07.881Z,5.10
2017-12-15T17:15:35.491Z,5.10
2017-12-15T17:18:02.953Z,5.10
2017-12-15T17:20:30.450Z,5.10
2017-12-15T17:22:57.914Z,5.10
2017-12-15T17:25:25.369Z,5.10
2017-12-15T17:27:52.834Z,5.10
2017-12-15T17:30:20.295Z,5.10
2017-12-15T17:32:48.555Z,5.10
2017-12-15T17:35:16.106Z,5.10
2017-12-15T17:37:45.085Z,5.00
2017-12-15T17:40:13.149Z,5.00
2017-12-15T17:42:40.609Z,5.10
2017-12-15T17:45:08.253Z,5.00
2017-12-15T17:47:35.709Z,5.10
2017-12-15T17:50:03.709Z,5.10
2017-12-15T17:52:31.181Z,5.10
2017-12-15T17:54:58.671Z,5.10
2017-12-15T17:57:26.138Z,5.20
2017-12-15T17:59:53.746Z,5.10
2017-12-15T18:02:21.220Z,5.10
2017-12-15T18:04:48.688Z,5.20
2017-12-15T18:07:16.948Z,5.20
2017-12-15T18:09:44.417Z,5.20
2017-12-15T18:12:12.632Z,5.20
2017-12-15T18:14:40.125Z,5.20
2017-12-15T18:17:07.585Z,5.20
2017-12-15T18:19:35.057Z,5.20
2017-12-15T18:22:03.312Z,5.20
2017-12-15T18:24:30.970Z,5.20
2017-12-15T18:26:58.473Z,5.20
2017-12-15T18:29:26.041Z,5.20
2017-12-15T18:31:53.485Z,5.20
2017-12-15T18:34:20.988Z,5.20
2017-12-15T18:36:48.500Z,5.20
2017-12-15T18:39:15.973Z,5.30
2017-12-15T18:41:43.467Z,5.30
2017-12-15T18:44:10.919Z,5.30
2017-12-15T18:46:38.394Z,5.30
2017-12-15T18:49:05.853Z,5.20
2017-12-15T18:51:33.329Z,5.30
2017-12-15T18:54:01.560Z,5.30
2017-12-15T18:56:29.028Z,5.30
2017-12-15T18:58:56.523Z,5.30
2017-12-15T19:01:23.983Z,5.30
2017-12-15T19:03:52.434Z,5.30
2017-12-15T19:06:19.892Z,5.30
2017-12-15T19:08:47.365Z,5.30
2017-12-15T19:11:15.586Z,5.30
2017-12-15T19:13:43.072Z,5.20
2017-12-15T19:16:10.534Z,5.30
2017-12-15T19:18:37.997Z,5.30
2017-12-15T19:21:05.458Z,5.30
2017-12-15T19:23:32.933Z,5.20
2017-12-15T19:26:01.153Z,5.30
2017-12-15T19:28:28.620Z,5.30
2017-12-15T19:30:56.073Z,5.40
2017-12-15T19:33:23.555Z,5.30
2017-12-15T19:35:51.476Z,5.30
2017-12-15T19:38:18.953Z,5.20
2017-12-15T19:40:46.425Z,5.20
2017-12-15T19:43:13.897Z,5.20
2017-12-15T19:45:42.326Z,5.20
2017-12-15T19:48:09.825Z,5.20
2017-12-15T19:50:37.566Z,5.20
2017-12-15T19:53:05.037Z,5.20
2017-12-15T19:55:32.516Z,5.20
2017-12-15T19:58:00.748Z,5.10
2017-12-15T20:00:28.246Z,5.10
2017-12-15T20:02:55.709Z,5.10
2017-12-15T20:05:24.144Z,5.10
2017-12-15T20:07:51.611Z,5.10
2017-12-15T20:10:19.081Z,5.10
2017-12-15T20:12:47.330Z,5.00
2017-12-15T20:15:14.914Z,5.00
2017-12-15T20:17:42.380Z,5.00
2017-12-15T20:20:09.860Z,5.00
2017-12-15T20:22:38.270Z,5.10
2017-12-15T20:25:05.898Z,5.10
2017-12-15T20:27:34.145Z,5.10
2017-12-15T20:30:01.628Z,5.10
2017-12-15T20:32:29.864Z,5.10
2017-12-15T20:34:57.316Z,5.10
2017-12-15T20:37:24.799Z,5.10
2017-12-15T20:39:53.025Z,4.90
2017-12-15T20:42:20.520Z,4.90
2017-12-15T20:44:49.501Z,4.80
2017-12-15T20:49:52.209Z,4.70
2017-12-15T20:52:19.685Z,4.70
2017-12-15T20:54:47.920Z,4.60
2017-12-15T20:57:15.411Z,4.60
2017-12-15T20:59:42.889Z,4.60
2017-12-15T21:02:10.836Z,4.50
2017-12-15T21:04:38.301Z,4.50
2017-12-15T21:07:06.526Z,4.40
2017-12-15T21:09:34.001Z,4.30
2017-12-15T21:12:01.469Z,4.30
2017-12-15T21:14:28.938Z,4.30
2017-12-15T21:16:56.415Z,4.30
2017-12-15T21:19:24.647Z,4.30
2017-12-15T21:21:52.205Z,4.30
2017-12-15T21:24:19.689Z,4.30
2017-12-15T21:26:48.010Z,4.30
2017-12-15T21:29:15.479Z,4.30
2017-12-15T21:31:43.061Z,4.20
2017-12-15T21:34:10.540Z,4.10
2017-12-15T21:36:38.022Z,4.10
2017-12-15T21:39:06.237Z,4.10
2017-12-15T21:41:33.748Z,4.10
2017-12-15T21:44:01.428Z,4.10
2017-12-15T21:46:28.930Z,4.10
2017-12-15T21:48:56.406Z,4.00
2017-12-15T21:51:24.653Z,3.90
2017-12-15T21:53:52.124Z,3.90
2017-12-15T21:56:19.592Z,3.90
2017-12-15T21:58:47.849Z,4.00
2017-12-15T22:01:15.525Z,4.00
2017-12-15T22:03:43.031Z,4.00
2017-12-15T22:06:10.654Z,3.90
2017-12-15T22:08:38.912Z,3.90
2017-12-15T22:11:06.372Z,3.80
2017-12-15T22:13:33.861Z,3.80
2017-12-15T22:16:01.324Z,3.90
2017-12-15T22:18:28.787Z,3.90
2017-12-15T22:20:56.257Z,3.90
2017-12-15T22:23:23.861Z,3.90
2017-12-15T22:25:51.326Z,3.90
2017-12-15T22:28:19.559Z,3.90
2017-12-15T22:30:47.021Z,3.90
2017-12-15T22:33:14.480Z,3.90
2017-12-15T22:35:41.956Z,4.00
2017-12-15T22:38:09.421Z,4.00
2017-12-15T22:40:36.946Z,4.00
2017-12-15T22:43:04.484Z,4.00
2017-12-15T22:45:31.993Z,4.00
2017-12-15T22:47:59.466Z,3.90
2017-12-15T22:50:27.705Z,3.90
2017-12-15T22:52:55.208Z,3.90
2017-12-15T22:55:23.427Z,4.00
2017-12-15T22:57:50.966Z,4.00
2017-12-15T23:00:18.645Z,4.00
2017-12-15T23:02:46.124Z,4.00
2017-12-15T23:05:13.588Z,4.10
2017-12-15T23:07:41.041Z,4.00
2017-12-15T23:10:08.515Z,4.10
2017-12-15T23:12:36.744Z,4.10
2017-12-15T23:15:04.222Z,4.10
2017-12-15T23:17:31.811Z,4.10
2017-12-15T23:20:00.036Z,4.20
2017-12-15T23:22:28.260Z,4.20
2017-12-15T23:24:56.495Z,4.20
2017-12-15T23:27:23.997Z,4.20
2017-12-15T23:29:52.237Z,4.30
2017-12-15T23:32:19.816Z,4.30
2017-12-15T23:34:48.058Z,4.30
2017-12-15T23:37:15.519Z,4.30
2017-12-15T23:39:42.981Z,4.30
2017-12-15T23:42:11.070Z,4.30
2017-12-15T23:44:38.541Z,4.30
2017-12-15T23:47:06.778Z,4.30
2017-12-15T23:49:34.261Z,4.30
2017-12-15T23:52:01.717Z,4.30
2017-12-15T23:54:40.969Z,4.20
2017-12-15T23:57:09.245Z,4.30
2017-12-15T23:59:37.572Z,4.30
